Alviso, California
Current Conditions -  °F | °C
As of 7:56 AM on Saturday 25 Oct 2014 (Local Time) from KNUQ Reporting Station
Light Rain Light Rain  
Wind Chill: 16°   Ceiling: 4900
Heat Index: 16°   Visibility: 10mi
Dew Point: 16°   Wind: 7mph
Humidity: 100%   Direction: 130°SE
Pressure: 30.01"   Gusts: NA
Location:  37.43°N, 121.97°W
Report Text: KNUQ 251456Z 13006KT 10SM -RA FEW027 OVC049 16/16 A3001 RMK AO2 SLP164 P0002 60008 T01610161 51028 $
Loading
Personal Weather Stations






























Interactive Weather Map
Tropical Storm Tracking
New forecast layout! Learn more

10-Day Weather Forecast

Advertisements
Track Severe Weather on mobile